Terminal Aerodrome Forecast
Issued by NWS Bismarck, ND

Home | Current Version | Previous Version | Text Only | Print | Product List | Glossary On
Versions: 1 2 3 4 5 6 7 8 9 10 11 12 13 14 15 16
000
FTUS43 KBIS 061303 AAA
TAFBIS
TAF AMD
KBIS 061303Z 0613/0712 VRB04KT P6SM SCT100
     FM061400 34010KT P6SM SCT250
     FM061800 36019G28KT 6SM FU SCT200
     FM070000 02014KT P6SM BKN200
     FM070300 02007KT P6SM SCT200=

USA.gov is the U.S. government's official web portal to all federal, state and local government web resources and services.